createdAt,value
2019-04-16T00:02:23.467Z,10.50
2019-04-16T00:05:06.164Z,9.80
2019-04-16T00:07:44.928Z,11.43
2019-04-16T00:10:31.009Z,11.40
2019-04-16T00:13:21.520Z,10.23
2019-04-16T00:15:52.004Z,11.50
2019-04-16T00:18:26.104Z,11.70
2019-04-16T00:21:11.543Z,11.00
2019-04-16T00:23:51.587Z,11.10
2019-04-16T00:26:26.507Z,10.43
2019-04-16T00:28:54.590Z,10.87
2019-04-16T00:31:25.154Z,11.20
2019-04-16T00:33:55.858Z,10.90
2019-04-16T00:36:26.405Z,10.97
2019-04-16T00:38:56.888Z,10.70
2019-04-16T00:41:27.344Z,10.60
2019-04-16T00:43:57.831Z,11.30
2019-04-16T00:46:29.472Z,10.70
2019-04-16T00:48:59.977Z,10.70
2019-04-16T00:51:30.449Z,10.07
2019-04-16T00:54:00.945Z,10.10
2019-04-16T00:56:31.447Z,11.17
2019-04-16T00:59:01.931Z,10.80
2019-04-16T01:01:32.387Z,13.90
2019-04-16T01:04:03.302Z,11.00
2019-04-16T01:06:34.080Z,10.13
2019-04-16T01:09:06.056Z,11.83
2019-04-16T01:11:36.715Z,12.43
2019-04-16T01:14:07.212Z,11.30
2019-04-16T01:16:37.718Z,12.20
2019-04-16T01:19:09.974Z,11.67
2019-04-16T01:21:44.504Z,12.80
2019-04-16T01:24:12.545Z,11.60
2019-04-16T01:26:43.050Z,11.40
2019-04-16T01:29:15.152Z,12.00
2019-04-16T01:31:45.560Z,11.50
2019-04-16T01:34:24.683Z,11.20
2019-04-16T01:36:57.669Z,11.77
2019-04-16T01:39:38.649Z,10.73
2019-04-16T01:42:09.209Z,11.27
2019-04-16T01:44:39.709Z,10.40
2019-04-16T01:47:10.163Z,10.10
2019-04-16T01:49:42.061Z,12.20
2019-04-16T01:52:12.823Z,11.13
2019-04-16T01:54:44.048Z,11.33
2019-04-16T01:57:14.500Z,11.40
2019-04-16T01:59:45.005Z,11.60
2019-04-16T02:02:15.975Z,11.10
2019-04-16T02:04:48.415Z,10.20
2019-04-16T02:07:18.710Z,12.00
2019-04-16T02:09:49.203Z,9.80
2019-04-16T02:12:20.451Z,11.20
2019-04-16T02:14:51.145Z,11.93
2019-04-16T02:17:26.719Z,10.43
2019-04-16T02:19:54.044Z,11.90
2019-04-16T02:22:24.501Z,11.13
2019-04-16T02:24:54.958Z,10.43
2019-04-16T02:27:26.247Z,10.97
2019-04-16T02:29:58.551Z,11.33
2019-04-16T02:32:29.616Z,10.50
2019-04-16T02:35:00.665Z,10.47
2019-04-16T02:37:35.525Z,9.70
2019-04-16T02:40:03.398Z,10.97
2019-04-16T02:42:34.349Z,10.30
2019-04-16T02:45:05.943Z,11.50
2019-04-16T02:47:40.715Z,11.47
2019-04-16T02:50:10.466Z,10.33
2019-04-16T02:52:42.669Z,10.90
2019-04-16T02:55:17.783Z,10.53
2019-04-16T02:58:02.425Z,11.60
2019-04-16T03:00:50.916Z,11.60
2019-04-16T03:03:28.764Z,11.10
2019-04-16T03:06:01.018Z,11.40
2019-04-16T03:08:33.397Z,11.00
2019-04-16T03:11:04.106Z,12.90
2019-04-16T03:13:34.598Z,11.33
2019-04-16T03:16:15.699Z,11.40
2019-04-16T03:18:48.381Z,12.63
2019-04-16T03:21:19.059Z,11.33
2019-04-16T03:23:49.620Z,12.20
2019-04-16T03:26:20.096Z,11.80
2019-04-16T03:28:50.596Z,11.20
2019-04-16T03:31:23.407Z,10.87
2019-04-16T03:33:53.244Z,11.70
2019-04-16T03:36:26.546Z,11.20
2019-04-16T03:38:55.996Z,11.10
2019-04-16T03:41:26.471Z,11.63
2019-04-16T03:43:56.959Z,12.87
2019-04-16T03:46:27.451Z,12.83
2019-04-16T03:48:57.911Z,11.37
2019-04-16T03:51:28.407Z,12.80
2019-04-16T03:53:58.980Z,13.43
2019-04-16T03:56:30.669Z,10.77
2019-04-16T03:59:01.736Z,11.90
2019-04-16T04:01:32.213Z,13.17
2019-04-16T04:04:02.753Z,12.97
2019-04-16T04:06:33.264Z,12.20
2019-04-16T04:09:04.791Z,11.70
2019-04-16T04:11:40.974Z,12.63
2019-04-16T04:14:08.255Z,11.37
2019-04-16T04:16:38.760Z,12.27
2019-04-16T04:19:14.095Z,13.33
2019-04-16T04:21:41.418Z,11.90
2019-04-16T04:24:11.984Z,13.07
2019-04-16T04:26:42.525Z,12.13
2019-04-16T04:29:13.034Z,12.53
2019-04-16T04:31:44.298Z,11.90
2019-04-16T04:34:17.162Z,12.27
2019-04-16T04:36:48.597Z,14.23
2019-04-16T04:39:20.300Z,36.27
2019-04-16T04:41:52.623Z,46.03
2019-04-16T04:44:23.076Z,44.87
2019-04-16T04:46:53.535Z,32.80
2019-04-16T04:49:24.037Z,31.50
2019-04-16T04:51:54.515Z,16.27
2019-04-16T04:54:24.999Z,13.27
2019-04-16T04:56:58.870Z,13.77
2019-04-16T04:59:27.810Z,12.97
2019-04-16T05:01:58.274Z,12.90
2019-04-16T05:04:33.245Z,13.07
2019-04-16T05:07:05.449Z,13.20
2019-04-16T05:09:37.504Z,11.57
2019-04-16T05:12:08.593Z,12.50
2019-04-16T05:14:40.837Z,12.67
2019-04-16T05:17:11.481Z,13.03
2019-04-16T05:19:43.785Z,13.07
2019-04-16T05:22:14.128Z,11.30
2019-04-16T05:24:44.586Z,11.83
2019-04-16T05:27:15.157Z,12.20
2019-04-16T05:29:48.620Z,10.80
2019-04-16T05:32:17.825Z,12.33
2019-04-16T05:34:51.734Z,10.33
2019-04-16T05:37:22.228Z,10.50
2019-04-16T05:39:53.131Z,10.73
2019-04-16T05:42:26.080Z,11.20
2019-04-16T05:44:55.926Z,31.37
2019-04-16T05:47:26.438Z,41.80
2019-04-16T05:49:58.691Z,15.40
2019-04-16T05:52:29.375Z,11.07
2019-04-16T05:55:01.743Z,10.90
2019-04-16T05:57:33.864Z,10.60
2019-04-16T06:00:10.139Z,11.00
2019-04-16T06:02:43.514Z,10.87
2019-04-16T06:05:14.408Z,9.93
2019-04-16T06:07:45.059Z,11.20
2019-04-16T06:10:17.836Z,10.10
2019-04-16T06:12:54.922Z,9.90
2019-04-16T06:15:36.020Z,9.77
2019-04-16T06:18:24.106Z,11.13
2019-04-16T06:20:54.333Z,12.10
2019-04-16T06:23:31.950Z,15.90
2019-04-16T06:26:01.078Z,17.83
2019-04-16T06:28:48.989Z,17.63
2019-04-16T06:31:21.148Z,17.40
2019-04-16T06:33:53.290Z,17.73
2019-04-16T06:36:35.885Z,17.80
2019-04-16T06:39:12.321Z,15.27
2019-04-16T06:42:00.532Z,28.00
2019-04-16T06:44:34.852Z,36.70
2019-04-16T06:47:11.206Z,17.23
2019-04-16T06:49:42.027Z,15.20
2019-04-16T06:52:25.941Z,14.30
2019-04-16T06:55:03.747Z,12.90
2019-04-16T06:57:43.875Z,12.27
2019-04-16T07:00:22.054Z,11.10
2019-04-16T07:03:10.606Z,11.20
2019-04-16T07:05:49.796Z,11.10
2019-04-16T07:08:36.963Z,11.17
2019-04-16T07:11:01.157Z,10.10
2019-04-16T07:13:31.618Z,10.00
2019-04-16T07:16:02.193Z,10.67
2019-04-16T07:18:35.514Z,11.23
2019-04-16T07:21:04.928Z,10.60
2019-04-16T07:23:35.430Z,14.90
2019-04-16T07:26:06.045Z,14.00
2019-04-16T07:28:38.142Z,8.80
2019-04-16T07:34:16.332Z,8.87
2019-04-16T07:34:34.791Z,9.10
2019-04-16T07:36:48.463Z,8.47
2019-04-16T07:39:30.203Z,12.37
2019-04-16T07:42:08.456Z,25.30
2019-04-16T07:44:40.050Z,11.13
2019-04-16T07:47:12.257Z,8.70
2019-04-16T07:49:59.832Z,9.87
2019-04-16T07:52:29.986Z,8.70
2019-04-16T07:55:04.679Z,8.57
2019-04-16T07:57:35.188Z,8.20
2019-04-16T08:00:09.811Z,8.77
2019-04-16T08:02:40.381Z,9.77
2019-04-16T08:05:10.934Z,7.83
2019-04-16T08:07:41.457Z,8.77
2019-04-16T08:10:12.756Z,8.80
2019-04-16T08:12:44.859Z,8.70
2019-04-16T08:15:15.669Z,13.17
2019-04-16T08:17:46.156Z,13.93
2019-04-16T08:20:19.753Z,9.87
2019-04-16T08:22:52.010Z,9.10
2019-04-16T08:25:33.541Z,9.40
2019-04-16T08:28:02.247Z,8.57
2019-04-16T08:30:37.259Z,9.47
2019-04-16T08:33:05.040Z,8.63
2019-04-16T08:35:35.571Z,8.10
2019-04-16T08:38:06.074Z,8.77
2019-04-16T08:40:36.534Z,8.13
2019-04-16T08:43:07.103Z,7.47
2019-04-16T08:45:39.905Z,7.10
2019-04-16T08:48:09.797Z,8.40
2019-04-16T08:50:40.257Z,8.17
2019-04-16T08:53:13.274Z,7.87
2019-04-16T08:55:42.947Z,7.77
2019-04-16T08:58:13.433Z,7.90
2019-04-16T09:00:46.574Z,8.00
2019-04-16T09:03:17.762Z,8.10
2019-04-16T09:05:48.280Z,8.10
2019-04-16T09:08:36.458Z,8.93
2019-04-16T09:11:06.995Z,8.10
2019-04-16T09:13:44.411Z,7.90
2019-04-16T09:16:14.040Z,8.27
2019-04-16T09:18:49.084Z,8.13
2019-04-16T09:21:19.629Z,8.43
2019-04-16T09:24:09.378Z,8.80
2019-04-16T09:26:57.573Z,8.40
2019-04-16T09:29:35.528Z,8.20
2019-04-16T09:32:17.820Z,8.57
2019-04-16T09:35:09.839Z,7.53
2019-04-16T09:37:40.375Z,8.33
2019-04-16T09:40:17.575Z,7.83
2019-04-16T09:42:47.559Z,8.33
2019-04-16T09:45:19.000Z,8.40
2019-04-16T09:47:49.494Z,8.67
2019-04-16T09:50:19.965Z,8.33
2019-04-16T09:52:52.494Z,8.53
2019-04-16T09:55:22.676Z,7.80
2019-04-16T09:57:53.172Z,9.33
2019-04-16T10:00:28.242Z,8.20
2019-04-16T10:03:00.402Z,8.30
2019-04-16T10:05:30.933Z,8.73
2019-04-16T10:08:01.528Z,8.40
2019-04-16T10:10:33.157Z,11.50
2019-04-16T10:13:03.674Z,10.97
2019-04-16T10:15:34.284Z,9.40
2019-04-16T10:18:04.844Z,8.77
2019-04-16T10:20:35.382Z,8.13
2019-04-16T10:23:07.485Z,8.60
2019-04-16T10:25:38.004Z,9.00
2019-04-16T10:28:12.693Z,8.90
2019-04-16T10:30:44.842Z,8.30
2019-04-16T10:33:15.356Z,8.17
2019-04-16T10:35:45.863Z,8.03
2019-04-16T10:38:29.953Z,8.40
2019-04-16T10:41:02.120Z,8.43
2019-04-16T10:43:50.488Z,8.63
2019-04-16T10:46:38.582Z,8.97
2019-04-16T10:49:19.599Z,9.50
2019-04-16T10:52:07.591Z,8.47
2019-04-16T10:54:38.290Z,8.33
2019-04-16T10:57:10.693Z,9.17
2019-04-16T10:59:45.917Z,8.50
2019-04-16T11:02:30.262Z,8.90
2019-04-16T11:05:10.880Z,9.50
2019-04-16T11:07:43.050Z,8.37
2019-04-16T11:10:13.793Z,10.37
2019-04-16T11:12:44.357Z,8.40
2019-04-16T11:15:17.174Z,8.83
2019-04-16T11:17:47.905Z,10.67
2019-04-16T11:20:18.509Z,14.07
2019-04-16T11:22:48.963Z,11.90
2019-04-16T11:25:19.526Z,9.37
2019-04-16T11:27:50.081Z,8.63
2019-04-16T11:30:31.107Z,8.80
2019-04-16T11:33:02.019Z,8.73
2019-04-16T11:35:32.548Z,8.90
2019-04-16T11:38:03.175Z,8.73
2019-04-16T11:40:33.649Z,9.87
2019-04-16T11:43:04.183Z,8.43
2019-04-16T11:45:35.039Z,8.00
2019-04-16T11:48:06.471Z,9.50
2019-04-16T11:50:36.968Z,8.83
2019-04-16T11:53:07.477Z,8.80
2019-04-16T11:55:38.049Z,8.97
2019-04-16T11:58:10.279Z,9.60
2019-04-16T12:00:54.291Z,8.77
2019-04-16T12:03:34.777Z,7.83
2019-04-16T12:06:28.239Z,8.30
2019-04-16T12:09:12.178Z,9.10
2019-04-16T12:11:44.331Z,8.63
2019-04-16T12:14:34.867Z,8.53
2019-04-16T12:17:15.324Z,8.63
2019-04-16T12:19:45.605Z,8.00
2019-04-16T12:22:15.854Z,7.60
2019-04-16T12:24:52.009Z,8.97
2019-04-16T12:27:25.099Z,8.80
2019-04-16T12:30:04.145Z,8.43
2019-04-16T12:32:52.421Z,8.60
2019-04-16T12:35:31.043Z,8.30
2019-04-16T12:38:13.121Z,9.00
2019-04-16T12:40:55.558Z,9.80
2019-04-16T12:43:30.173Z,9.07
2019-04-16T12:46:15.328Z,8.70
2019-04-16T12:48:47.430Z,10.30
2019-04-16T12:51:19.671Z,9.50
2019-04-16T12:53:53.109Z,8.67
2019-04-16T12:56:24.884Z,9.50
2019-04-16T12:58:56.978Z,8.60
2019-04-16T13:01:44.343Z,8.40
2019-04-16T13:04:16.509Z,8.00
2019-04-16T13:07:03.862Z,8.63
2019-04-16T13:09:41.651Z,8.70
2019-04-16T13:12:14.322Z,8.93
2019-04-16T13:15:02.560Z,9.97
2019-04-16T13:17:34.812Z,8.90
2019-04-16T13:20:15.378Z,8.60
2019-04-16T13:22:54.584Z,9.00
2019-04-16T13:25:26.810Z,8.73
2019-04-16T13:27:57.281Z,9.20
2019-04-16T13:30:27.796Z,8.57
2019-04-16T13:32:58.260Z,9.50
2019-04-16T13:35:28.837Z,8.13
2019-04-16T13:37:59.462Z,8.30
2019-04-16T13:40:30.345Z,8.43
2019-04-16T13:43:01.665Z,7.83
2019-04-16T13:45:34.660Z,8.70
2019-04-16T13:48:16.009Z,8.23
2019-04-16T13:50:40.954Z,7.80
2019-04-16T13:53:22.947Z,7.63
2019-04-16T13:56:11.338Z,7.50
2019-04-16T13:58:43.478Z,7.53
2019-04-16T14:01:18.584Z,8.50
2019-04-16T14:03:50.693Z,7.57
2019-04-16T14:06:21.154Z,7.20
2019-04-16T14:08:51.670Z,7.13
2019-04-16T14:11:22.274Z,7.80
2019-04-16T14:13:52.761Z,7.30
2019-04-16T14:16:23.310Z,7.37
2019-04-16T14:18:53.809Z,7.40
2019-04-16T14:21:24.265Z,7.57
2019-04-16T14:23:54.775Z,7.20
2019-04-16T14:26:25.245Z,6.70
2019-04-16T14:28:56.951Z,7.03
2019-04-16T14:31:27.789Z,6.30
2019-04-16T14:34:11.891Z,6.30
2019-04-16T14:36:42.384Z,6.33
2019-04-16T14:39:12.675Z,6.30
2019-04-16T14:41:48.923Z,6.47
2019-04-16T14:44:20.178Z,6.40
2019-04-16T14:46:50.664Z,5.90
2019-04-16T14:49:21.169Z,6.50
2019-04-16T14:51:51.646Z,6.20
2019-04-16T14:54:32.638Z,6.30
2019-04-16T14:57:10.182Z,7.27
2019-04-16T14:59:42.446Z,6.13
2019-04-16T15:02:31.247Z,5.97
2019-04-16T15:05:02.190Z,7.20
2019-04-16T15:07:38.280Z,7.00
2019-04-16T15:10:27.064Z,7.10
2019-04-16T15:13:11.197Z,7.30
2019-04-16T15:15:43.330Z,7.33
2019-04-16T15:18:15.452Z,7.67
2019-04-16T15:21:03.626Z,7.27
2019-04-16T15:23:36.522Z,6.90
2019-04-16T15:26:17.634Z,9.90
2019-04-16T15:29:11.773Z,10.03
2019-04-16T15:31:46.455Z,7.00
2019-04-16T15:34:16.740Z,11.33
2019-04-16T15:36:54.998Z,10.40
2019-04-16T15:39:25.505Z,10.33
2019-04-16T15:42:17.415Z,6.50
2019-04-16T15:44:56.194Z,5.90
2019-04-16T15:47:27.437Z,5.60
2019-04-16T15:50:05.555Z,5.60
2019-04-16T15:52:37.187Z,4.93
2019-04-16T15:55:24.508Z,5.67
2019-04-16T15:58:08.150Z,5.30
2019-04-16T16:00:55.929Z,5.17
2019-04-16T16:03:26.189Z,5.20
2019-04-16T16:06:10.620Z,5.20
2019-04-16T16:08:43.325Z,4.90
2019-04-16T16:11:19.914Z,5.77
2019-04-16T16:13:50.406Z,5.37
2019-04-16T16:16:20.910Z,6.73
2019-04-16T16:18:51.651Z,5.27
2019-04-16T16:21:22.228Z,5.43
2019-04-16T16:23:52.692Z,5.30
2019-04-16T16:26:23.205Z,30.73
2019-04-16T16:28:53.683Z,13.37
2019-04-16T16:31:24.178Z,7.13
2019-04-16T16:33:54.655Z,5.67
2019-04-16T16:36:26.484Z,6.10
2019-04-16T16:38:57.363Z,5.70
2019-04-16T16:41:28.119Z,6.60
2019-04-16T16:43:58.627Z,5.33
2019-04-16T16:46:31.334Z,6.47
2019-04-16T16:49:01.931Z,11.03
2019-04-16T16:51:32.476Z,16.93
2019-04-16T16:54:04.614Z,8.63
2019-04-16T16:56:36.720Z,5.80
2019-04-16T16:59:09.439Z,6.33
2019-04-16T17:01:44.841Z,6.17
2019-04-16T17:04:17.015Z,6.80
2019-04-16T17:06:47.607Z,6.57
2019-04-16T17:09:30.328Z,6.00
2019-04-16T17:12:00.532Z,6.03
2019-04-16T17:14:36.478Z,6.87
2019-04-16T17:17:13.784Z,6.07
2019-04-16T17:19:37.501Z,5.30
2019-04-16T17:22:08.033Z,6.20
2019-04-16T17:24:38.544Z,5.80
2019-04-16T17:27:09.382Z,5.27
2019-04-16T17:29:39.902Z,6.10
2019-04-16T17:32:10.478Z,5.00
2019-04-16T17:34:41.255Z,5.63
2019-04-16T17:37:11.719Z,5.37
2019-04-16T17:39:43.873Z,5.33
2019-04-16T17:42:16.757Z,15.37
2019-04-16T17:44:54.724Z,7.03
2019-04-16T17:47:32.507Z,6.27
2019-04-16T17:50:10.970Z,34.57
2019-04-16T17:52:43.988Z,10.80
2019-04-16T17:55:21.696Z,6.13
2019-04-16T17:58:05.641Z,5.93
2019-04-16T18:00:51.541Z,5.37
2019-04-16T18:03:24.586Z,6.27
2019-04-16T18:05:56.810Z,5.90
2019-04-16T18:08:44.959Z,6.83
2019-04-16T18:11:17.091Z,6.63
2019-04-16T18:13:49.224Z,6.27
2019-04-16T18:16:24.305Z,6.53
2019-04-16T18:19:06.625Z,22.17
2019-04-16T18:21:47.591Z,10.77
2019-04-16T18:24:22.811Z,9.83
2019-04-16T18:27:10.186Z,6.00
2019-04-16T18:29:40.512Z,6.50
2019-04-16T18:32:27.696Z,6.60
2019-04-16T18:35:02.497Z,5.90
2019-04-16T18:37:41.783Z,7.10
2019-04-16T18:40:14.546Z,6.77
2019-04-16T18:43:01.650Z,5.97
2019-04-16T18:45:52.333Z,6.73
2019-04-16T18:48:26.534Z,6.80
2019-04-16T18:50:59.915Z,7.30
2019-04-16T18:53:29.230Z,6.90
2019-04-16T18:55:59.722Z,6.80
2019-04-16T18:58:30.181Z,6.80
2019-04-16T19:01:02.317Z,6.10
2019-04-16T19:03:32.872Z,6.67
2019-04-16T19:06:03.638Z,6.83
2019-04-16T19:08:41.558Z,6.30
2019-04-16T19:11:06.399Z,6.10
2019-04-16T19:13:36.864Z,5.50
2019-04-16T19:16:07.358Z,5.87
2019-04-16T19:18:37.927Z,7.50
2019-04-16T19:21:08.383Z,6.63
2019-04-16T19:23:38.944Z,6.90
2019-04-16T19:26:09.421Z,6.60
2019-04-16T19:28:40.474Z,6.70
2019-04-16T19:31:10.927Z,7.27
2019-04-16T19:33:41.421Z,6.43
2019-04-16T19:36:11.962Z,6.67
2019-04-16T19:38:42.458Z,8.97
2019-04-16T19:41:12.924Z,16.03
2019-04-16T19:43:43.447Z,7.93
2019-04-16T19:46:15.667Z,12.13
2019-04-16T19:48:46.227Z,9.70
2019-04-16T19:51:19.572Z,7.43
2019-04-16T19:53:48.887Z,7.63
2019-04-16T19:56:19.626Z,8.03
2019-04-16T19:58:50.398Z,6.50
2019-04-16T20:01:20.880Z,7.67
2019-04-16T20:03:51.378Z,7.07
2019-04-16T20:06:25.351Z,7.23
2019-04-16T20:08:54.039Z,7.30
2019-04-16T20:11:24.516Z,6.60
2019-04-16T20:13:55.478Z,6.30
2019-04-16T20:16:26.157Z,8.70
2019-04-16T20:18:56.690Z,7.60
2019-04-16T20:21:27.149Z,8.40
2019-04-16T20:23:57.647Z,7.67
2019-04-16T20:26:32.127Z,7.67
2019-04-16T20:29:01.425Z,7.97
2019-04-16T20:31:31.983Z,9.10
2019-04-16T20:34:02.806Z,9.33
2019-04-16T20:36:33.315Z,8.00
2019-04-16T20:39:05.948Z,7.90
2019-04-16T20:41:36.462Z,8.57
2019-04-16T20:44:09.281Z,9.33
2019-04-16T20:46:39.194Z,8.00
2019-04-16T20:49:10.755Z,8.77
2019-04-16T20:51:41.447Z,8.10
2019-04-16T20:54:13.798Z,9.57
2019-04-16T20:56:44.095Z,9.63
2019-04-16T20:59:14.584Z,8.90
2019-04-16T21:01:45.072Z,7.77
2019-04-16T21:04:15.543Z,9.10
2019-04-16T21:06:46.039Z,7.90
2019-04-16T21:09:16.625Z,7.90
2019-04-16T21:11:47.077Z,7.50
2019-04-16T21:14:18.927Z,7.47
2019-04-16T21:16:49.749Z,7.73
2019-04-16T21:19:23.158Z,8.27
2019-04-16T21:21:55.273Z,8.03
2019-04-16T21:24:24.566Z,7.67
2019-04-16T21:26:56.771Z,7.70
2019-04-16T21:29:33.404Z,7.50
2019-04-16T21:32:10.276Z,8.40
2019-04-16T21:34:40.690Z,7.60
2019-04-16T21:37:29.473Z,8.10
2019-04-16T21:40:04.302Z,7.00
2019-04-16T21:42:35.627Z,7.03
2019-04-16T21:45:08.817Z,7.33
2019-04-16T21:47:40.371Z,7.47
2019-04-16T21:50:16.040Z,8.40
2019-04-16T21:52:44.689Z,7.80
2019-04-16T21:55:15.229Z,7.60
2019-04-16T21:57:46.081Z,8.27
2019-04-16T22:00:21.937Z,8.27
2019-04-16T22:02:52.819Z,8.00
2019-04-16T22:05:25.299Z,8.13
2019-04-16T22:07:57.128Z,7.90
2019-04-16T22:10:28.720Z,7.70
2019-04-16T22:12:59.599Z,8.50
2019-04-16T22:15:30.145Z,7.93
2019-04-16T22:18:01.181Z,7.60
2019-04-16T22:20:35.322Z,8.07
2019-04-16T22:23:04.977Z,9.30
2019-04-16T22:25:36.449Z,8.10
2019-04-16T22:28:11.682Z,8.10
2019-04-16T22:30:39.626Z,8.73
2019-04-16T22:33:12.173Z,8.23
2019-04-16T22:35:42.640Z,7.90
2019-04-16T22:38:14.392Z,7.80
2019-04-16T22:40:56.533Z,9.27
2019-04-16T22:43:46.944Z,8.93
2019-04-16T22:46:19.117Z,7.13
2019-04-16T22:48:57.011Z,7.00
2019-04-16T22:51:27.478Z,7.80
2019-04-16T22:53:58.389Z,7.20
2019-04-16T22:56:33.525Z,7.77
2019-04-16T22:59:07.756Z,8.20
2019-04-16T23:01:44.893Z,7.70
2019-04-16T23:04:14.788Z,7.23
2019-04-16T23:06:46.028Z,8.27
2019-04-16T23:09:18.797Z,7.73
2019-04-16T23:11:49.257Z,6.53
2019-04-16T23:14:19.751Z,7.70
2019-04-16T23:16:50.413Z,7.43
2019-04-16T23:19:21.252Z,7.43
2019-04-16T23:21:51.841Z,7.47
2019-04-16T23:24:24.195Z,8.00
2019-04-16T23:26:54.735Z,8.20
2019-04-16T23:29:25.197Z,7.30
2019-04-16T23:31:57.618Z,8.03
2019-04-16T23:34:28.085Z,8.00
2019-04-16T23:36:59.709Z,8.40
2019-04-16T23:39:36.610Z,8.30
2019-04-16T23:42:07.010Z,8.20
2019-04-16T23:44:54.635Z,8.20
2019-04-16T23:47:42.977Z,8.80
2019-04-16T23:50:21.306Z,8.83
2019-04-16T23:52:56.021Z,8.73
2019-04-16T23:55:34.312Z,8.73
2019-04-16T23:58:07.710Z,8.77
